EGJJ Airport Information

Runway Information
Runway 09 Length 5597 ft width 151 ft
Elevation 270 ft Threshold 200 ft Heading 83
Runway 27 Length 5597 ft Width 151 ft
Elevation 271 ft Threshold 299 ft Heading 263
Airport Frequencies
Type APP Name APP Frequency 120.3 MHZ
Type ATIS Name INFO Frequency 112.2 MHZ
Type GND Name GND Frequency 121.9 MHZ
Type RDR Name RDR Frequency 118.55 MHZ
Type TWR Name TWR Frequency 119.45 MHZ
Airport Navaids
Type VOR-DME Name Jersey Frequency 112200 KHZ
Airport Weather Information & NOTAM
ADDS - METARS form results

(1916 UTC 24 May 2022)
Data provider http://aviationweather.gov/metar/data/
 
METAR text: EGJJ 241850Z 28010KT 9999 FEW015 13/10 Q1013
Conditions at: EGJJ (JERSEY AIRPORT , JE) observed 1850 UTC 24 May 2022
Temperature: 13.0°C (55°F)
Dewpoint: 10.0°C (50°F) [RH = 82%]
Pressure (altimeter): 29.91 inches Hg (1013.0 mb)
Winds: from the W (280 degrees) at 12 MPH (10 knots; 5.1 m/s)
Visibility: 6 or more miles (10+ km)
Ceiling: at least 12,000 feet AGL
Clouds: few clouds at 1500 feet AGL
Weather: no significant weather observed at this time

METAR text: EGJJ 241820Z 27011KT 9999 FEW015 14/10 Q1012
Conditions at: EGJJ (JERSEY AIRPORT , JE) observed 1820 UTC 24 May 2022
Temperature: 14.0°C (57°F)
Dewpoint: 10.0°C (50°F) [RH = 77%]
Pressure (altimeter): 29.88 inches Hg (1012.0 mb)
Winds: from the W (270 degrees) at 13 MPH (11 knots; 5.7 m/s)
Visibility: 6 or more miles (10+ km)
Ceiling: at least 12,000 feet AGL
Clouds: few clouds at 1500 feet AGL
Weather: no significant weather observed at this time

Forecast for: EGJJ (JERSEY AIRPORT , JE)
Text: TAF EGJJ 241700Z 2418/2503 27012KT 9999 FEW014
Forecast period: 1800 UTC 24 May 2022 to 0300 UTC 25 May 2022
Forecast type: FROM: standard forecast or significant change
Winds: from the W (270 degrees) at 14 MPH (12 knots; 6.2 m/s)
Visibility: 6 or more miles (10+ km)
Ceiling: at least 12,000 feet AGL
Clouds: few clouds at 1400 feet AGL
Weather: no significant weather forecast for this period